createdAt,value
2022-11-28T00:00:36.833Z,81.3
2022-11-28T00:02:41.775Z,81.3
2022-11-28T00:02:52.191Z,81.3
2022-11-28T00:05:36.877Z,81.3
2022-11-28T00:07:37.027Z,81.3
2022-11-28T00:08:36.828Z,81.3
2022-11-28T00:09:36.886Z,81.3
2022-11-28T00:10:36.845Z,81.3
2022-11-28T00:11:36.808Z,81.3
2022-11-28T00:12:36.853Z,81.3
2022-11-28T00:13:36.808Z,81.3
2022-11-28T00:14:36.820Z,81.3
2022-11-28T00:15:40.891Z,81.3
2022-11-28T00:16:36.986Z,81.3
2022-11-28T00:17:36.803Z,81.3
2022-11-28T00:18:36.850Z,81.3
2022-11-28T00:19:36.843Z,81.3
2022-11-28T00:20:36.830Z,81.3
2022-11-28T00:21:36.825Z,81.3
2022-11-28T00:22:36.873Z,81.3
2022-11-28T00:23:36.823Z,81.5
2022-11-28T00:24:36.821Z,81.5
2022-11-28T00:25:36.863Z,81.5
2022-11-28T00:26:36.822Z,81.5
2022-11-28T00:27:36.814Z,81.5
2022-11-28T00:28:36.855Z,81.5
2022-11-28T00:29:36.941Z,81.5
2022-11-28T00:30:41.885Z,81.5
2022-11-28T00:31:36.955Z,81.5
2022-11-28T00:33:36.867Z,81.5
2022-11-28T00:34:36.847Z,81.5
2022-11-28T00:35:40.940Z,81.5
2022-11-28T00:36:52.114Z,81.6
2022-11-28T00:37:52.270Z,81.6
2022-11-28T00:38:52.192Z,81.6
2022-11-28T00:39:40.903Z,81.6
2022-11-28T00:40:52.244Z,81.6
2022-11-28T00:41:36.826Z,81.6
2022-11-28T00:42:52.323Z,81.6
2022-11-28T00:43:41.864Z,81.6
2022-11-28T00:44:42.172Z,81.6
2022-11-28T00:45:40.901Z,81.6
2022-11-28T00:46:40.885Z,81.6
2022-11-28T00:47:41.990Z,81.6
2022-11-28T00:48:41.865Z,81.6
2022-11-28T00:49:40.901Z,81.6
2022-11-28T00:50:52.337Z,81.6
2022-11-28T00:51:52.229Z,81.6
2022-11-28T00:52:52.338Z,81.6
2022-11-28T00:53:52.306Z,81.6
2022-11-28T00:54:41.470Z,81.6
2022-11-28T00:55:36.939Z,81.6
2022-11-28T00:57:12.763Z,81.6
2022-11-28T00:57:36.878Z,81.6
2022-11-28T00:58:36.914Z,81.6
2022-11-28T00:59:36.879Z,81.6
2022-11-28T01:00:36.856Z,81.6
2022-11-28T01:01:41.996Z,81.6
2022-11-28T01:02:52.200Z,81.6
2022-11-28T01:03:52.337Z,81.6
2022-11-28T01:04:41.212Z,81.6
2022-11-28T01:05:40.785Z,81.6
2022-11-28T01:06:40.991Z,81.6
2022-11-28T01:07:41.998Z,81.6
2022-11-28T01:08:41.911Z,81.6
2022-11-28T01:09:41.951Z,81.6
2022-11-28T01:10:41.924Z,81.6
2022-11-28T01:11:41.899Z,81.6
2022-11-28T01:12:40.908Z,81.9
2022-11-28T01:13:52.144Z,81.9
2022-11-28T01:14:52.319Z,81.9
2022-11-28T01:15:40.931Z,81.9
2022-11-28T01:16:41.006Z,81.9
2022-11-28T01:17:36.875Z,81.9
2022-11-28T01:18:52.193Z,81.9
2022-11-28T01:19:52.350Z,81.9
2022-11-28T01:20:52.240Z,81.9
2022-11-28T01:21:40.902Z,81.9
2022-11-28T01:22:52.325Z,81.9
2022-11-28T01:23:52.200Z,81.9
2022-11-28T01:24:52.379Z,81.9
2022-11-28T01:25:41.956Z,81.9
2022-11-28T01:26:40.909Z,81.9
2022-11-28T01:27:36.924Z,81.9
2022-11-28T01:28:36.936Z,81.9
2022-11-28T01:29:41.949Z,81.9
2022-11-28T01:30:52.321Z,81.9
2022-11-28T01:31:37.077Z,81.9
2022-11-28T01:32:36.975Z,81.9
2022-11-28T01:33:36.899Z,81.9
2022-11-28T01:34:36.939Z,81.7
2022-11-28T01:35:48.318Z,81.7
2022-11-28T01:36:39.949Z,81.7
2022-11-28T01:37:36.912Z,81.7
2022-11-28T01:38:41.976Z,81.7
2022-11-28T01:39:41.977Z,81.7
2022-11-28T01:40:41.962Z,81.7
2022-11-28T01:41:48.231Z,81.7
2022-11-28T01:42:36.942Z,81.7
2022-11-28T01:43:36.939Z,81.7
2022-11-28T01:45:15.039Z,81.7
2022-11-28T01:46:37.073Z,81.7
2022-11-28T01:47:36.947Z,81.7
2022-11-28T01:48:37.014Z,81.7
2022-11-28T01:49:36.962Z,81.7
2022-11-28T01:50:36.938Z,80.4
2022-11-28T01:51:36.980Z,80.4
2022-11-28T01:52:36.979Z,80.4
2022-11-28T01:53:36.987Z,80.4
2022-11-28T01:54:41.219Z,80.4
2022-11-28T01:55:52.229Z,80.4
2022-11-28T01:56:40.990Z,80.4
2022-11-28T01:57:52.272Z,80.4
2022-11-28T01:58:36.975Z,80.4
2022-11-28T02:00:37.015Z,80.4
2022-11-28T02:01:37.009Z,80.4
2022-11-28T02:02:37.153Z,80.4
2022-11-28T02:03:36.990Z,80.4
2022-11-28T02:04:37.025Z,80.4
2022-11-28T02:05:36.991Z,80.4
2022-11-28T02:06:37.023Z,80.4
2022-11-28T02:07:37.161Z,80.4
2022-11-28T02:08:37.072Z,80.4
2022-11-28T02:09:37.006Z,80.4
2022-11-28T02:10:37.042Z,80.4
2022-11-28T02:11:37.002Z,80.4
2022-11-28T02:12:37.011Z,80.4
2022-11-28T02:13:37.016Z,80.4
2022-11-28T02:14:37.059Z,80.4
2022-11-28T02:15:37.063Z,80.4
2022-11-28T02:16:37.123Z,80.4
2022-11-28T02:17:37.020Z,80.4
2022-11-28T02:18:37.040Z,80.4
2022-11-28T02:19:37.034Z,80.4
2022-11-28T02:20:37.021Z,80.4
2022-11-28T02:21:37.046Z,80.4
2022-11-28T02:22:37.048Z,80.4
2022-11-28T02:23:37.044Z,80.4
2022-11-28T02:24:37.130Z,80.4
2022-11-28T02:25:37.128Z,79.8
2022-11-28T02:26:37.052Z,79.8
2022-11-28T02:27:37.055Z,79.8
2022-11-28T02:28:37.068Z,79.8
2022-11-28T02:29:37.070Z,79.8
2022-11-28T02:30:37.095Z,79.8
2022-11-28T02:31:37.100Z,79.8
2022-11-28T02:32:37.074Z,79.8
2022-11-28T02:33:37.070Z,79.8
2022-11-28T02:34:37.081Z,79.8
2022-11-28T02:35:37.064Z,79.8
2022-11-28T02:36:37.101Z,79.8
2022-11-28T02:37:37.069Z,79.8
2022-11-28T02:38:37.072Z,79.8
2022-11-28T02:39:37.061Z,79.8
2022-11-28T02:40:37.068Z,79.8
2022-11-28T02:41:37.070Z,79.8
2022-11-28T02:42:46.175Z,79.8
2022-11-28T02:43:37.085Z,79.8
2022-11-28T02:46:37.190Z,79.8
2022-11-28T02:48:00.560Z,79.8
2022-11-28T02:48:42.135Z,79.8
2022-11-28T02:49:52.399Z,79.8
2022-11-28T02:52:37.154Z,79.8
2022-11-28T02:53:37.102Z,79.8
2022-11-28T02:54:42.565Z,79.8
2022-11-28T02:55:37.104Z,79.8
2022-11-28T02:56:37.090Z,79.8
2022-11-28T02:57:37.065Z,79.3
2022-11-28T02:58:37.078Z,79.3
2022-11-28T02:59:37.118Z,79.3
2022-11-28T03:01:13.724Z,79.3
2022-11-28T03:01:37.160Z,79.3
2022-11-28T03:02:37.108Z,79.3
2022-11-28T03:03:37.091Z,79.3
2022-11-28T03:04:37.107Z,79.3
2022-11-28T03:05:42.123Z,79.3
2022-11-28T03:06:42.139Z,79.3
2022-11-28T03:07:37.182Z,79.3
2022-11-28T03:08:37.068Z,79.3
2022-11-28T03:09:37.077Z,79.3
2022-11-28T03:10:37.141Z,79.3
2022-11-28T03:11:37.096Z,79.3
2022-11-28T03:12:37.085Z,79.3
2022-11-28T03:13:37.115Z,79.3
2022-11-28T03:14:37.087Z,79.3
2022-11-28T03:15:37.128Z,79.3
2022-11-28T03:16:37.146Z,79.3
2022-11-28T03:17:37.121Z,78.5
2022-11-28T03:19:37.132Z,78.5
2022-11-28T03:21:37.211Z,78.5
2022-11-28T03:22:37.095Z,78.5
2022-11-28T03:23:37.138Z,78.5
2022-11-28T03:24:37.126Z,78.5
2022-11-28T03:25:37.146Z,78.5
2022-11-28T03:26:37.124Z,78.5
2022-11-28T03:27:41.187Z,78.5
2022-11-28T03:28:43.789Z,78.5
2022-11-28T03:29:37.140Z,78.5
2022-11-28T03:30:37.208Z,78.5
2022-11-28T03:31:37.191Z,78.5
2022-11-28T03:32:37.134Z,78.5
2022-11-28T03:33:41.193Z,78.5
2022-11-28T03:34:41.439Z,78.5
2022-11-28T03:35:42.182Z,78.5
2022-11-28T03:36:37.141Z,78.5
2022-11-28T03:37:42.232Z,78.5
2022-11-28T03:38:37.145Z,78.7
2022-11-28T03:39:42.217Z,78.7
2022-11-28T03:40:41.194Z,78.7
2022-11-28T03:41:37.179Z,78.7
2022-11-28T03:42:37.208Z,78.7
2022-11-28T03:43:42.238Z,78.7
2022-11-28T03:44:37.182Z,78.7
2022-11-28T03:45:41.187Z,78.7
2022-11-28T03:46:44.410Z,78.7
2022-11-28T03:47:37.192Z,78.7
2022-11-28T03:48:37.191Z,78.7
2022-11-28T03:49:42.220Z,78.7
2022-11-28T03:50:37.174Z,78.7
2022-11-28T03:51:37.232Z,78.7
2022-11-28T03:52:42.247Z,78.7
2022-11-28T03:53:37.215Z,78.7
2022-11-28T03:54:37.196Z,78.7
2022-11-28T03:56:13.872Z,78.7
2022-11-28T03:56:37.263Z,78.7
2022-11-28T03:57:42.303Z,78.7
2022-11-28T03:58:37.197Z,78.7
2022-11-28T03:59:37.233Z,78.7
2022-11-28T04:00:37.288Z,78.7
2022-11-28T04:02:37.371Z,78.7
2022-11-28T04:04:37.242Z,78.7
2022-11-28T04:05:37.278Z,78.7
2022-11-28T04:07:16.043Z,78.7
2022-11-28T04:07:50.358Z,78.7
2022-11-28T04:08:37.241Z,78.7
2022-11-28T04:09:41.267Z,78.7
2022-11-28T04:10:37.254Z,78.7
2022-11-28T04:11:42.281Z,78.7
2022-11-28T04:12:37.271Z,78.7
2022-11-28T04:14:15.853Z,78.7
2022-11-28T04:15:37.446Z,78.7
2022-11-28T04:16:37.328Z,78.7
2022-11-28T04:18:15.581Z,78.3
2022-11-28T04:21:36.171Z,78.3
2022-11-28T04:21:45.379Z,78.3
2022-11-28T04:22:41.304Z,78.3
2022-11-28T04:23:37.296Z,78.3
2022-11-28T04:24:41.692Z,78.3
2022-11-28T04:27:42.231Z,78.3
2022-11-28T04:31:45.497Z,78.3
2022-11-28T04:33:42.431Z,78.3
2022-11-28T04:34:46.692Z,78.3
2022-11-28T04:35:41.385Z,78.3
2022-11-28T04:37:42.296Z,78.1
2022-11-28T04:38:41.684Z,78.1
2022-11-28T04:38:50.910Z,78.1
2022-11-28T04:39:50.818Z,78.1
2022-11-28T04:40:37.332Z,78.1
2022-11-28T04:41:41.358Z,78.1
2022-11-28T04:44:41.631Z,78.1
2022-11-28T04:45:45.452Z,78.1
2022-11-28T04:47:50.830Z,78.1
2022-11-28T04:48:37.303Z,78.1
2022-11-28T04:52:41.383Z,78.1
2022-11-28T04:53:12.772Z,78.1
2022-11-28T04:53:37.343Z,78.1
2022-11-28T04:54:37.317Z,78.1
2022-11-28T04:55:37.355Z,78.1
2022-11-28T04:56:37.344Z,78.1
2022-11-28T04:59:42.490Z,78.1
2022-11-28T05:00:06.305Z,78.1
2022-11-28T05:01:44.780Z,78.1
2022-11-28T05:02:37.442Z,78.1
2022-11-28T05:04:08.879Z,78.1
2022-11-28T05:09:00.839Z,78.1
2022-11-28T05:09:19.384Z,78.1
2022-11-28T05:10:37.406Z,78.2
2022-11-28T05:11:42.408Z,78.2
2022-11-28T05:12:42.532Z,78.2
2022-11-28T05:13:46.793Z,78.2
2022-11-28T05:14:41.727Z,78.2
2022-11-28T05:18:41.922Z,78.2
2022-11-28T05:19:37.445Z,78.2
2022-11-28T05:20:40.598Z,78.2
2022-11-28T05:21:46.788Z,78.2
2022-11-28T05:22:41.470Z,78.2
2022-11-28T05:23:40.419Z,78.4
2022-11-28T05:24:46.926Z,78.4
2022-11-28T05:25:40.437Z,78.4
2022-11-28T05:26:41.436Z,78.4
2022-11-28T05:27:37.479Z,78.4
2022-11-28T05:29:37.427Z,78.4
2022-11-28T05:30:40.471Z,78.4
2022-11-28T05:31:40.652Z,78.4
2022-11-28T05:32:45.476Z,78.4
2022-11-28T05:33:41.453Z,78.4
2022-11-28T05:34:37.412Z,78.4
2022-11-28T05:35:40.456Z,78.4
2022-11-28T05:36:40.478Z,78.4
2022-11-28T05:37:46.544Z,78.4
2022-11-28T05:39:41.794Z,78.4
2022-11-28T05:39:41.798Z,78.4
2022-11-28T05:40:46.505Z,78.4
2022-11-28T05:41:40.451Z,78.4
2022-11-28T05:43:40.472Z,78.4
2022-11-28T05:44:37.486Z,78.4
2022-11-28T05:45:40.648Z,78.4
2022-11-28T05:46:40.470Z,78.4
2022-11-28T05:47:46.245Z,78.4
2022-11-28T05:48:40.449Z,78.4
2022-11-28T05:49:37.441Z,78.4
2022-11-28T05:50:41.472Z,78.4
2022-11-28T05:51:40.468Z,78.4
2022-11-28T05:53:40.504Z,78.4
2022-11-28T05:55:39.541Z,78.4
2022-11-28T05:55:41.974Z,78.4
2022-11-28T05:56:42.474Z,78.4
2022-11-28T05:57:40.502Z,78.4
2022-11-28T06:02:41.513Z,78.4
2022-11-28T06:03:40.654Z,78.4
2022-11-28T06:04:37.504Z,78.4
2022-11-28T06:05:42.203Z,78.4
2022-11-28T06:07:40.565Z,79.2
2022-11-28T06:08:40.512Z,79.2
2022-11-28T06:09:40.683Z,79.2
2022-11-28T06:11:40.538Z,79.2
2022-11-28T06:11:42.487Z,79.2
2022-11-28T06:12:40.648Z,79.2
2022-11-28T06:13:41.531Z,79.2
2022-11-28T06:14:44.757Z,79.2
2022-11-28T06:15:40.518Z,79.2
2022-11-28T06:16:40.536Z,79.2
2022-11-28T06:17:41.531Z,79.2
2022-11-28T06:18:40.553Z,79.2
2022-11-28T06:20:40.570Z,79.2
2022-11-28T06:22:40.554Z,79.2
2022-11-28T06:22:50.666Z,79.2
2022-11-28T06:23:41.580Z,79.2
2022-11-28T06:26:41.610Z,79.2
2022-11-28T06:26:41.666Z,79.2
2022-11-28T06:27:40.597Z,79.2
2022-11-28T06:28:46.237Z,79.2
2022-11-28T06:29:46.142Z,79.2
2022-11-28T06:30:40.571Z,79.2
2022-11-28T06:31:52.917Z,79.2
2022-11-28T06:32:40.549Z,79.2
2022-11-28T06:35:46.339Z,79.2
2022-11-28T06:36:46.142Z,79.2
2022-11-28T06:37:40.701Z,79.2
2022-11-28T06:38:40.584Z,79.2
2022-11-28T06:40:40.606Z,79.2
2022-11-28T06:40:41.246Z,79.2
2022-11-28T06:41:40.581Z,79.2
2022-11-28T06:53:40.796Z,79.2
2022-11-28T06:54:41.598Z,79.2
2022-11-28T06:56:40.640Z,79.2
2022-11-28T06:56:41.760Z,79.2
2022-11-28T06:59:41.030Z,78.8
2022-11-28T07:04:37.643Z,78.5
2022-11-28T07:04:43.020Z,78.5
2022-11-28T07:05:44.738Z,78.5
2022-11-28T07:06:37.664Z,78.5
2022-11-28T07:07:52.785Z,78.5
2022-11-28T07:09:45.218Z,78.5
2022-11-28T07:10:44.745Z,78.5
2022-11-28T07:11:48.817Z,78.5
2022-11-28T07:12:39.674Z,78.8
2022-11-28T07:13:44.716Z,78.8
2022-11-28T07:15:49.108Z,78.8
2022-11-28T07:16:48.899Z,78.8
2022-11-28T07:17:49.003Z,78.8
2022-11-28T07:18:48.923Z,78.8
2022-11-28T07:20:44.941Z,78.8
2022-11-28T07:21:44.736Z,78.8
2022-11-28T07:22:44.682Z,78.8
2022-11-28T07:23:44.787Z,78.8
2022-11-28T07:24:39.685Z,78.8
2022-11-28T07:25:44.844Z,78.8
2022-11-28T07:26:44.748Z,78.8
2022-11-28T07:27:44.931Z,78.8
2022-11-28T07:28:44.839Z,78.8
2022-11-28T07:29:39.756Z,78.8
2022-11-28T07:31:39.961Z,78.8
2022-11-28T07:32:44.764Z,78.8
2022-11-28T07:33:44.847Z,78.8
2022-11-28T07:34:48.882Z,78.8
2022-11-28T07:35:39.686Z,78.8
2022-11-28T07:36:39.669Z,78.8
2022-11-28T07:37:38.688Z,78.8
2022-11-28T07:38:38.682Z,78.8
2022-11-28T07:39:38.661Z,78.8
2022-11-28T07:40:39.711Z,78.8
2022-11-28T07:41:38.684Z,78.8
2022-11-28T07:42:38.665Z,78.8
2022-11-28T07:43:38.724Z,78.8
2022-11-28T07:44:38.683Z,78.8
2022-11-28T07:45:59.468Z,78.8
2022-11-28T07:47:44.808Z,78.8
2022-11-28T07:48:39.686Z,78.8
2022-11-28T07:49:49.002Z,78.8
2022-11-28T07:50:48.927Z,78.8
2022-11-28T07:51:39.708Z,78.8
2022-11-28T07:52:39.689Z,78.8
2022-11-28T07:53:39.704Z,78.8
2022-11-28T07:54:39.711Z,78.8
2022-11-28T07:55:39.687Z,78.8
2022-11-28T07:57:10.837Z,78.8
2022-11-28T07:58:38.726Z,78.8
2022-11-28T07:59:38.777Z,78.8
2022-11-28T08:00:44.838Z,78.8
2022-11-28T08:01:44.821Z,78.8
2022-11-28T08:03:38.721Z,77.9
2022-11-28T08:04:44.019Z,77.9
2022-11-28T08:05:38.720Z,77.9
2022-11-28T08:06:44.778Z,77.9
2022-11-28T08:07:39.763Z,77.9
2022-11-28T08:08:44.838Z,77.9
2022-11-28T08:09:45.182Z,77.9
2022-11-28T08:10:44.890Z,77.9
2022-11-28T08:11:44.785Z,77.9
2022-11-28T08:12:38.714Z,77.9
2022-11-28T08:14:38.756Z,77.9
2022-11-28T08:15:39.734Z,77.9
2022-11-28T08:16:40.744Z,77.9
2022-11-28T08:17:44.801Z,77.9
2022-11-28T08:18:39.727Z,77.9
2022-11-28T08:19:38.709Z,77.9
2022-11-28T08:20:44.745Z,77.9
2022-11-28T08:21:44.881Z,77.9
2022-11-28T08:22:44.759Z,77.9
2022-11-28T08:25:44.915Z,78
2022-11-28T08:27:38.733Z,78
2022-11-28T08:28:44.979Z,78
2022-11-28T08:30:37.814Z,78
2022-11-28T08:31:37.746Z,78
2022-11-28T08:32:44.822Z,78
2022-11-28T08:33:44.795Z,78
2022-11-28T08:36:53.471Z,78
2022-11-28T08:37:42.819Z,78
2022-11-28T08:38:38.803Z,78
2022-11-28T08:39:38.730Z,78
2022-11-28T08:42:17.057Z,78
2022-11-28T08:42:44.889Z,78
2022-11-28T08:43:44.811Z,78
2022-11-28T08:44:38.745Z,78
2022-11-28T08:46:53.328Z,78
2022-11-28T08:47:44.942Z,78
2022-11-28T08:48:44.849Z,78
2022-11-28T08:50:00.907Z,78
2022-11-28T08:50:47.923Z,78
2022-11-28T08:52:44.955Z,78
2022-11-28T08:53:38.779Z,78
2022-11-28T08:54:45.336Z,78
2022-11-28T08:55:44.921Z,78
2022-11-28T08:57:37.769Z,76.7
2022-11-28T08:58:38.771Z,76.7
2022-11-28T08:59:45.431Z,76.7
2022-11-28T09:00:38.787Z,76.7
2022-11-28T09:02:45.021Z,76.7
2022-11-28T09:03:45.020Z,76.7
2022-11-28T09:04:53.289Z,76.7
2022-11-28T09:05:38.921Z,76.7
2022-11-28T09:06:38.815Z,76.7
2022-11-28T09:07:38.931Z,76.7
2022-11-28T09:08:44.986Z,76.7
2022-11-28T09:09:45.074Z,76.7
2022-11-28T09:10:45.049Z,76.7
2022-11-28T09:11:44.936Z,76.7
2022-11-28T09:13:40.832Z,76.7
2022-11-28T09:14:40.834Z,76.7
2022-11-28T09:15:40.811Z,76.7
2022-11-28T09:16:40.978Z,76.7
2022-11-28T09:18:39.823Z,76.7
2022-11-28T09:19:40.250Z,76.7
2022-11-28T09:20:45.082Z,76.7
2022-11-28T09:21:40.853Z,76.7
2022-11-28T09:22:39.846Z,76.7
2022-11-28T09:23:39.844Z,76.7
2022-11-28T09:24:39.828Z,76.5
2022-11-28T09:25:45.090Z,76.5
2022-11-28T09:26:40.881Z,76.5
2022-11-28T09:27:39.836Z,76.5
2022-11-28T09:28:45.054Z,76.5
2022-11-28T09:29:41.216Z,76.5
2022-11-28T09:30:45.182Z,76.5
2022-11-28T09:31:47.507Z,76.5
2022-11-28T09:33:40.024Z,76.5
2022-11-28T09:35:40.984Z,76.5
2022-11-28T09:36:45.069Z,76.5
2022-11-28T09:38:09.275Z,76.5
2022-11-28T09:38:39.871Z,76.5
2022-11-28T09:40:39.867Z,76.5
2022-11-28T09:41:44.907Z,76.5
2022-11-28T09:42:39.866Z,76.5
2022-11-28T09:43:39.878Z,76.5
2022-11-28T09:44:45.046Z,76.5
2022-11-28T09:46:41.059Z,75.1
2022-11-28T09:47:40.871Z,75.1
2022-11-28T09:48:40.895Z,75.1
2022-11-28T09:49:45.065Z,75.1
2022-11-28T09:51:39.889Z,75.1
2022-11-28T09:52:40.887Z,75.1
2022-11-28T09:53:45.122Z,75.1
2022-11-28T09:55:40.003Z,75.1
2022-11-28T09:56:39.898Z,76.4
2022-11-28T09:57:45.092Z,76.4
2022-11-28T09:58:37.876Z,76.4
2022-11-28T09:59:39.900Z,76.4
2022-11-28T10:00:40.388Z,76.4
2022-11-28T10:01:40.924Z,76.4
2022-11-28T10:02:40.892Z,76.4
2022-11-28T10:03:45.097Z,76.4
2022-11-28T10:04:41.022Z,76.4
2022-11-28T10:07:09.425Z,76.4
2022-11-28T10:07:40.958Z,76.4
2022-11-28T10:08:40.928Z,76.4
2022-11-28T10:09:45.152Z,77.7
2022-11-28T10:10:40.923Z,77.7
2022-11-28T10:12:41.039Z,77.7
2022-11-28T10:14:06.080Z,77.7
2022-11-28T10:14:44.994Z,77.7
2022-11-28T10:15:40.908Z,77.7
2022-11-28T10:17:41.078Z,77.7
2022-11-28T10:18:45.102Z,77.7
2022-11-28T10:19:53.992Z,77.7
2022-11-28T10:20:45.178Z,77.7
2022-11-28T10:21:41.062Z,77.7
2022-11-28T10:23:41.117Z,77.7
2022-11-28T10:25:40.079Z,77.7
2022-11-28T10:26:39.995Z,77.7
2022-11-28T10:27:45.005Z,77.7
2022-11-28T10:28:39.977Z,77.7
2022-11-28T10:30:40.007Z,77.7
2022-11-28T10:32:45.202Z,77.7
2022-11-28T10:34:40.984Z,77.7
2022-11-28T10:36:39.814Z,77.7
2022-11-28T10:37:40.982Z,77.7
2022-11-28T10:38:40.951Z,77.7
2022-11-28T10:39:45.451Z,77.7
2022-11-28T10:40:39.953Z,77.7
2022-11-28T10:41:39.957Z,77.7
2022-11-28T10:42:45.109Z,77.7
2022-11-28T10:43:45.113Z,77.7
2022-11-28T10:44:45.177Z,77.7
2022-11-28T10:45:45.115Z,77.7
2022-11-28T10:46:45.163Z,77.7
2022-11-28T10:48:45.203Z,76.3
2022-11-28T10:49:45.528Z,76.3
2022-11-28T10:50:45.087Z,76.3
2022-11-28T10:51:40.990Z,76.3
2022-11-28T10:52:40.982Z,76.3
2022-11-28T10:54:41.143Z,76.3
2022-11-28T10:55:40.988Z,76.3
2022-11-28T10:58:09.646Z,76.3
2022-11-28T10:58:40.996Z,76.3
2022-11-28T11:00:45.300Z,76.3
2022-11-28T11:01:49.817Z,76.3
2022-11-28T11:02:45.260Z,75.5
2022-11-28T11:03:45.191Z,75.5
2022-11-28T11:04:40.328Z,75.5
2022-11-28T11:06:47.582Z,75.5
2022-11-28T11:07:40.047Z,75.5
2022-11-28T11:08:45.201Z,75.5
2022-11-28T11:09:45.372Z,75.5
2022-11-28T11:10:40.050Z,75.5
2022-11-28T11:11:45.171Z,75.5
2022-11-28T11:12:40.062Z,75.5
2022-11-28T11:13:40.042Z,75.5
2022-11-28T11:14:40.035Z,75.5
2022-11-28T11:15:45.352Z,75.5
2022-11-28T11:16:40.014Z,75.5
2022-11-28T11:18:45.439Z,75.5
2022-11-28T11:19:45.441Z,75.5
2022-11-28T11:21:45.245Z,75.5
2022-11-28T11:23:41.207Z,75.5
2022-11-28T11:24:41.051Z,75.5
2022-11-28T11:25:41.031Z,75.5
2022-11-28T11:26:41.066Z,75.5
2022-11-28T11:27:41.051Z,75.5
2022-11-28T11:28:45.098Z,75.5
2022-11-28T11:29:40.102Z,75.5
2022-11-28T11:30:40.166Z,75.5
2022-11-28T11:31:40.070Z,75.5
2022-11-28T11:32:45.343Z,75.5
2022-11-28T11:34:40.245Z,75.5
2022-11-28T11:35:40.103Z,75.5
2022-11-28T11:36:40.072Z,75.5
2022-11-28T11:37:40.093Z,75.5
2022-11-28T11:38:40.069Z,75.5
2022-11-28T11:39:40.195Z,75.5
2022-11-28T11:40:40.171Z,75.5
2022-11-28T11:41:40.106Z,75.5
2022-11-28T11:42:40.062Z,76.4
2022-11-28T11:43:39.061Z,76.4
2022-11-28T11:44:45.342Z,76.4
2022-11-28T11:45:40.110Z,76.4
2022-11-28T11:46:45.473Z,76.4
2022-11-28T11:48:38.168Z,76.4
2022-11-28T11:49:40.454Z,76.4
2022-11-28T11:50:40.129Z,76.4
2022-11-28T11:51:40.128Z,76.4
2022-11-28T11:52:45.315Z,76.4
2022-11-28T11:54:45.134Z,76.4
2022-11-28T11:55:45.282Z,76.4
2022-11-28T11:56:45.209Z,75.8
2022-11-28T11:57:45.349Z,75.8
2022-11-28T11:58:45.254Z,75.8
2022-11-28T11:59:45.647Z,75.8
2022-11-28T12:00:45.322Z,75.8
2022-11-28T12:01:45.229Z,75.8
2022-11-28T12:02:40.382Z,75.8
2022-11-28T12:03:40.270Z,75.8
2022-11-28T12:04:45.766Z,75.8
2022-11-28T12:06:06.217Z,75.8
2022-11-28T12:06:39.182Z,75.8
2022-11-28T12:07:40.175Z,75.8
2022-11-28T12:08:40.195Z,75.8
2022-11-28T12:09:40.181Z,75.8
2022-11-28T12:10:41.129Z,75.8
2022-11-28T12:11:46.526Z,75.8
2022-11-28T12:12:45.212Z,75.8
2022-11-28T12:13:45.180Z,75.8
2022-11-28T12:14:45.484Z,75.8
2022-11-28T12:16:41.226Z,75.8
2022-11-28T12:17:49.446Z,75.8
2022-11-28T12:18:45.361Z,75.8
2022-11-28T12:19:45.314Z,75.8
2022-11-28T12:21:45.359Z,76.3
2022-11-28T12:22:40.161Z,76.3
2022-11-28T12:23:45.224Z,76.3
2022-11-28T12:25:41.338Z,76.3
2022-11-28T12:26:41.171Z,76.3
2022-11-28T12:27:41.187Z,76.3
2022-11-28T12:28:41.181Z,76.3
2022-11-28T12:29:40.188Z,76.3
2022-11-28T12:30:44.619Z,76.3
2022-11-28T12:31:40.226Z,76.3
2022-11-28T12:32:41.179Z,76.3
2022-11-28T12:33:41.158Z,76.3
2022-11-28T12:34:45.216Z,76.3
2022-11-28T12:35:40.187Z,76.3
2022-11-28T12:36:45.201Z,76.3
2022-11-28T12:38:09.679Z,76.3
2022-11-28T12:38:41.183Z,76.5
2022-11-28T12:39:38.172Z,76.5
2022-11-28T12:41:38.176Z,76.5
2022-11-28T12:42:38.182Z,76.5
2022-11-28T12:43:41.193Z,76.5
2022-11-28T12:45:41.160Z,76.5
2022-11-28T12:46:45.294Z,75.7
2022-11-28T12:47:45.246Z,75.7
2022-11-28T12:48:38.142Z,75.7
2022-11-28T12:49:38.220Z,75.7
2022-11-28T12:50:38.180Z,75.7
2022-11-28T12:51:41.186Z,75.7
2022-11-28T12:52:41.195Z,75.7
2022-11-28T12:53:45.375Z,75.7
2022-11-28T12:54:38.204Z,75.7
2022-11-28T12:55:40.165Z,75.7
2022-11-28T12:56:38.203Z,75.7
2022-11-28T12:57:45.249Z,75.7
2022-11-28T12:58:45.387Z,75.7
2022-11-28T12:59:45.606Z,75.7
2022-11-28T13:01:49.602Z,75.7
2022-11-28T13:02:40.321Z,75.7
2022-11-28T13:03:41.213Z,75.7
2022-11-28T13:04:41.594Z,75.7
2022-11-28T13:05:45.233Z,75.7
2022-11-28T13:06:45.385Z,75.7
2022-11-28T13:07:45.335Z,75.7
2022-11-28T13:08:48.420Z,75.7
2022-11-28T13:09:45.848Z,75.7
2022-11-28T13:10:45.316Z,75.7
2022-11-28T13:12:45.456Z,75.7
2022-11-28T13:13:41.217Z,75.7
2022-11-28T13:14:41.244Z,75.7
2022-11-28T13:15:41.281Z,75.7
2022-11-28T13:16:40.261Z,75.7
2022-11-28T13:17:40.228Z,75.7
2022-11-28T13:18:41.191Z,75.7
2022-11-28T13:19:40.244Z,75.7
2022-11-28T13:20:41.247Z,75.7
2022-11-28T13:21:45.308Z,75.7
2022-11-28T13:22:45.390Z,75.7
2022-11-28T13:24:45.442Z,75.7
2022-11-28T13:25:45.361Z,75.7
2022-11-28T13:26:45.274Z,75.7
2022-11-28T13:28:45.464Z,75.7
2022-11-28T13:30:45.593Z,75.7
2022-11-28T13:31:41.321Z,75.7
2022-11-28T13:32:45.286Z,75.7
2022-11-28T13:33:41.245Z,75.7
2022-11-28T13:34:40.253Z,75.7
2022-11-28T13:35:40.223Z,75.7
2022-11-28T13:39:45.421Z,77
2022-11-28T13:40:45.472Z,77
2022-11-28T13:42:06.313Z,77
2022-11-28T13:43:03.376Z,77
2022-11-28T13:43:41.278Z,77
2022-11-28T13:44:41.755Z,77
2022-11-28T13:45:40.247Z,77
2022-11-28T13:46:41.359Z,77
2022-11-28T13:47:40.264Z,77
2022-11-28T13:49:13.782Z,77
2022-11-28T13:49:40.254Z,77
2022-11-28T13:50:41.270Z,77
2022-11-28T13:51:41.278Z,77
2022-11-28T13:52:41.259Z,77
2022-11-28T13:53:40.288Z,77
2022-11-28T13:54:41.356Z,77
2022-11-28T13:55:45.290Z,77
2022-11-28T13:56:41.307Z,77
2022-11-28T13:57:41.310Z,77
2022-11-28T13:58:38.324Z,77
2022-11-28T13:59:38.298Z,77
2022-11-28T14:00:40.272Z,77
2022-11-28T14:01:40.336Z,77
2022-11-28T14:02:41.917Z,77
2022-11-28T14:03:45.358Z,77
2022-11-28T14:04:47.591Z,77
2022-11-28T14:05:41.732Z,77
2022-11-28T14:06:38.303Z,77
2022-11-28T14:07:40.490Z,77
2022-11-28T14:08:40.298Z,77
2022-11-28T14:09:41.309Z,77
2022-11-28T14:10:45.389Z,77
2022-11-28T14:11:45.674Z,77
2022-11-28T14:12:45.473Z,77
2022-11-28T14:14:40.348Z,77
2022-11-28T14:15:41.407Z,77
2022-11-28T14:16:40.388Z,77
2022-11-28T14:17:40.334Z,78
2022-11-28T14:18:56.304Z,78
2022-11-28T14:19:38.309Z,78
2022-11-28T14:20:45.474Z,78
2022-11-28T14:21:41.326Z,78
2022-11-28T14:22:45.516Z,78
2022-11-28T14:23:45.443Z,78
2022-11-28T14:24:46.009Z,78
2022-11-28T14:25:45.502Z,78
2022-11-28T14:26:38.342Z,78
2022-11-28T14:27:45.479Z,78
2022-11-28T14:28:49.566Z,78
2022-11-28T14:29:40.374Z,78
2022-11-28T14:30:40.379Z,78.1
2022-11-28T14:32:13.718Z,78.1
2022-11-28T14:32:41.342Z,78.1
2022-11-28T14:33:40.338Z,78.1
2022-11-28T14:34:49.505Z,78.1
2022-11-28T14:35:40.383Z,78.1
2022-11-28T14:36:49.580Z,78.1
2022-11-28T14:37:45.420Z,78.1
2022-11-28T14:38:45.541Z,78.1
2022-11-28T14:39:45.421Z,78.1
2022-11-28T14:41:40.342Z,78.1
2022-11-28T14:43:00.290Z,78.1
2022-11-28T14:43:45.552Z,78.1
2022-11-28T14:50:40.381Z,78.1
2022-11-28T14:51:38.360Z,78.1
2022-11-28T14:52:39.922Z,78.1
2022-11-28T14:53:41.385Z,78.1
2022-11-28T14:54:41.493Z,78.1
2022-11-28T14:55:40.378Z,78.1
2022-11-28T14:56:38.378Z,78.1
2022-11-28T14:57:38.384Z,78.1
2022-11-28T14:58:41.562Z,78.1
2022-11-28T14:59:40.413Z,78.1
2022-11-28T15:01:38.417Z,78.1
2022-11-28T15:02:38.473Z,78.1
2022-11-28T15:03:45.507Z,78.1
2022-11-28T15:04:40.450Z,78.1
2022-11-28T15:05:40.425Z,78.1
2022-11-28T15:06:49.507Z,78.1
2022-11-28T15:07:49.800Z,78.1
2022-11-28T15:08:49.567Z,78.1
2022-11-28T15:09:49.473Z,78.1
2022-11-28T15:10:40.442Z,78.1
2022-11-28T15:11:40.423Z,78.1
2022-11-28T15:12:40.428Z,78.1
2022-11-28T15:13:40.449Z,78.1
2022-11-28T15:14:40.426Z,78.1
2022-11-28T15:15:49.783Z,78.1
2022-11-28T15:16:45.130Z,78.1
2022-11-28T15:17:40.459Z,78.1
2022-11-28T15:18:40.447Z,78.1
2022-11-28T15:19:40.443Z,78.1
2022-11-28T15:21:45.505Z,78.1
2022-11-28T15:23:45.726Z,78.1
2022-11-28T15:24:45.739Z,78.1
2022-11-28T15:25:45.618Z,78.1
2022-11-28T15:27:41.583Z,78.1
2022-11-28T15:29:45.503Z,78.1
2022-11-28T15:30:45.669Z,78.1
2022-11-28T15:31:45.607Z,78.1
2022-11-28T15:33:45.988Z,78.1
2022-11-28T15:37:11.030Z,78.1
2022-11-28T15:38:09.796Z,78.1
2022-11-28T15:39:10.759Z,78.1
2022-11-28T15:40:10.783Z,78.1
2022-11-28T15:41:10.847Z,78.1
2022-11-28T15:42:09.784Z,78.1
2022-11-28T15:43:13.099Z,78.1
2022-11-28T15:44:09.767Z,78.1
2022-11-28T15:45:10.793Z,78.1